createdAt,value
2017-11-23T13:51:38.397Z,10.68
2017-11-23T13:54:08.793Z,10.70
2017-11-23T13:56:44.418Z,10.78
2017-11-23T13:59:13.093Z,10.86
2017-11-23T14:01:41.801Z,10.89
2017-11-23T14:04:10.525Z,10.88
2017-11-23T14:06:38.911Z,10.96
2017-11-23T14:09:07.606Z,10.98
2017-11-23T14:11:36.269Z,10.97
2017-11-23T14:14:04.963Z,10.99
2017-11-23T14:16:33.593Z,11.02
2017-11-23T14:19:02.269Z,11.02
2017-11-23T14:21:30.931Z,11.10
2017-11-23T14:24:00.391Z,11.09
2017-11-23T14:26:29.059Z,11.10
2017-11-23T14:28:57.707Z,11.10
2017-11-23T14:31:26.391Z,11.11
2017-11-23T14:33:55.045Z,11.11
2017-11-23T14:36:23.732Z,11.09
2017-11-23T14:38:52.375Z,11.12
2017-11-23T14:41:21.061Z,11.14
2017-11-23T14:43:49.836Z,11.15
2017-11-23T14:46:18.484Z,11.14
2017-11-23T14:48:47.182Z,11.15
2017-11-23T14:51:15.856Z,11.16
2017-11-23T14:53:44.564Z,11.19
2017-11-23T14:56:13.220Z,11.17
2017-11-23T14:58:41.843Z,11.20
2017-11-23T15:01:10.510Z,11.19
2017-11-23T15:03:39.226Z,11.24
2017-11-23T15:06:07.934Z,11.22
2017-11-23T15:08:36.581Z,11.24
2017-11-23T15:11:05.265Z,11.23
2017-11-23T15:13:34.541Z,11.26
2017-11-23T15:16:03.173Z,11.24
2017-11-23T15:18:31.873Z,11.24
2017-11-23T15:21:00.514Z,11.22
2017-11-23T15:23:29.232Z,11.23
2017-11-23T15:25:57.864Z,11.23
2017-11-23T15:28:26.521Z,11.23
2017-11-23T15:30:55.199Z,11.20
2017-11-23T15:33:26.297Z,11.23
2017-11-23T15:35:54.945Z,11.22
2017-11-23T15:38:23.597Z,11.20
2017-11-23T15:40:52.281Z,11.22
2017-11-23T15:43:23.961Z,11.21
2017-11-23T15:45:52.652Z,11.22
2017-11-23T15:48:21.312Z,11.22
2017-11-23T15:50:49.980Z,11.20
2017-11-23T15:53:19.356Z,11.23
2017-11-23T15:55:48.013Z,11.24
2017-11-23T15:58:18.468Z,11.22
2017-11-23T16:00:47.836Z,11.22
2017-11-23T16:03:16.521Z,11.23
2017-11-23T16:05:45.209Z,11.25
2017-11-23T16:08:13.875Z,11.25
2017-11-23T16:10:42.516Z,11.23
2017-11-23T16:13:11.187Z,11.24
2017-11-23T16:15:39.887Z,11.22
2017-11-23T16:18:09.074Z,11.23
2017-11-23T16:20:37.714Z,11.25
2017-11-23T16:23:06.397Z,11.25
2017-11-23T16:25:35.412Z,11.25
2017-11-23T16:28:03.949Z,11.25
2017-11-23T16:30:32.453Z,11.24
2017-11-23T16:33:00.944Z,11.25
2017-11-23T16:35:36.818Z,11.23
2017-11-23T16:38:15.080Z,11.23
2017-11-23T16:40:59.447Z,11.23
2017-11-23T16:46:31.520Z,11.24
2017-11-23T16:49:16.366Z,11.23
2017-11-23T16:51:53.900Z,11.21
2017-11-23T16:54:37.378Z,11.23
2017-11-23T16:57:20.961Z,11.22
2017-11-23T17:00:11.245Z,11.21
2017-11-23T17:02:55.324Z,11.21
2017-11-23T17:05:40.439Z,11.22
2017-11-23T17:08:20.303Z,11.18
2017-11-23T17:11:02.994Z,11.19
2017-11-23T17:13:37.213Z,11.20
2017-11-23T17:16:21.381Z,11.19
2017-11-23T17:19:06.506Z,11.18
2017-11-23T17:21:49.517Z,11.17
2017-11-23T17:24:31.921Z,11.17
2017-11-23T17:27:15.675Z,11.16
2017-11-23T17:29:52.377Z,11.16
2017-11-23T17:32:35.346Z,11.15
2017-11-23T17:35:15.737Z,11.14
2017-11-23T17:37:59.282Z,11.13
2017-11-23T17:40:43.709Z,11.12
2017-11-23T17:43:12.832Z,11.13
2017-11-23T17:45:41.532Z,11.11
2017-11-23T17:48:13.679Z,11.07
2017-11-23T17:50:46.824Z,11.05
2017-11-23T17:53:15.487Z,11.01
2017-11-23T17:55:44.155Z,10.94
2017-11-23T17:58:12.865Z,10.92
2017-11-23T18:00:41.537Z,10.87
2017-11-23T18:03:10.368Z,10.79
2017-11-23T18:05:39.017Z,10.70
2017-11-23T18:08:07.716Z,10.63
2017-11-23T18:10:36.360Z,10.56
2017-11-23T18:13:05.063Z,10.51
2017-11-23T18:15:33.598Z,10.46
2017-11-23T18:18:02.238Z,10.38
2017-11-23T18:20:30.927Z,10.36
2017-11-23T18:22:59.568Z,10.28
2017-11-23T18:25:28.271Z,10.22
2017-11-23T18:27:56.968Z,10.16
2017-11-23T18:30:25.665Z,10.12
2017-11-23T18:32:54.297Z,10.07
2017-11-23T18:35:22.928Z,10.03
2017-11-23T18:37:51.608Z,9.98
2017-11-23T18:40:20.286Z,9.95
2017-11-23T18:42:48.970Z,9.89
2017-11-23T18:45:17.721Z,9.87
2017-11-23T18:47:46.394Z,9.80
2017-11-23T18:50:15.106Z,9.71
2017-11-23T18:52:43.793Z,9.70
2017-11-23T18:55:13.283Z,9.65
2017-11-23T18:57:41.973Z,9.62
2017-11-23T19:00:10.697Z,9.57
2017-11-23T19:02:39.353Z,9.50
2017-11-23T19:05:08.028Z,9.48
2017-11-23T19:07:36.682Z,9.45
2017-11-23T19:10:05.390Z,9.43
2017-11-23T19:12:34.040Z,9.40
2017-11-23T19:15:02.684Z,9.32
2017-11-23T19:17:31.384Z,9.30
2017-11-23T19:20:00.040Z,9.26
2017-11-23T19:22:28.723Z,9.22
2017-11-23T19:24:57.403Z,9.19
2017-11-23T19:27:26.138Z,9.16
2017-11-23T19:29:54.810Z,9.13
2017-11-23T19:32:23.500Z,9.10
2017-11-23T19:34:52.183Z,9.04
2017-11-23T19:37:20.832Z,9.03
2017-11-23T19:39:49.583Z,9.00
2017-11-23T19:42:18.215Z,8.99
2017-11-23T19:44:46.885Z,8.95
2017-11-23T19:47:15.583Z,8.93
2017-11-23T19:49:44.231Z,8.89
2017-11-23T19:52:12.913Z,8.88
2017-11-23T19:54:41.582Z,8.85
2017-11-23T19:57:10.279Z,8.82
2017-11-23T19:59:38.985Z,8.79
2017-11-23T20:02:07.707Z,8.78
2017-11-23T20:04:36.352Z,8.74
2017-11-23T20:07:05.048Z,8.72
2017-11-23T20:09:33.745Z,8.69
2017-11-23T20:12:02.415Z,8.65
2017-11-23T20:14:31.100Z,8.63
2017-11-23T20:16:59.776Z,8.61
2017-11-23T20:19:28.465Z,8.58
2017-11-23T20:21:57.113Z,8.55
2017-11-23T20:24:25.837Z,8.53
2017-11-23T20:26:54.464Z,8.51
2017-11-23T20:29:23.111Z,8.48
2017-11-23T20:31:51.861Z,8.46
2017-11-23T20:34:20.504Z,8.43
2017-11-23T20:36:49.192Z,8.41
2017-11-23T20:39:17.868Z,8.39
2017-11-23T20:41:46.533Z,8.36
2017-11-23T20:44:15.225Z,8.34
2017-11-23T20:46:43.875Z,8.32
2017-11-23T20:49:12.571Z,8.30
2017-11-23T20:51:41.286Z,8.29
2017-11-23T20:54:09.939Z,8.27
2017-11-23T20:56:38.634Z,8.25
2017-11-23T20:59:07.277Z,8.23
2017-11-23T21:01:35.969Z,8.22
2017-11-23T21:04:04.648Z,8.19
2017-11-23T21:06:33.201Z,8.19
2017-11-23T21:09:01.729Z,8.17
2017-11-23T21:11:30.372Z,8.16
2017-11-23T21:13:59.060Z,8.14
2017-11-23T21:16:27.751Z,8.12
2017-11-23T21:18:56.431Z,8.11
2017-11-23T21:21:25.105Z,8.10
2017-11-23T21:23:53.788Z,8.07
2017-11-23T21:26:22.421Z,8.06
2017-11-23T21:28:51.108Z,8.07
2017-11-23T21:31:19.757Z,8.05
2017-11-23T21:33:48.444Z,8.04
2017-11-23T21:36:17.126Z,8.01
2017-11-23T21:38:45.800Z,8.01
2017-11-23T21:41:14.483Z,8.00
2017-11-23T21:43:43.178Z,7.97
2017-11-23T21:46:11.832Z,7.96
2017-11-23T21:48:40.534Z,7.95
2017-11-23T21:51:09.175Z,7.95
2017-11-23T21:53:37.813Z,7.93
2017-11-23T21:56:06.538Z,7.93
2017-11-23T21:58:35.177Z,7.93
2017-11-23T22:01:03.888Z,7.90
2017-11-23T22:03:38.065Z,7.88
2017-11-23T22:06:06.742Z,7.87
2017-11-23T22:08:45.013Z,7.85
2017-11-23T22:11:23.568Z,7.86
2017-11-23T22:16:53.210Z,7.83
2017-11-23T22:19:28.450Z,7.81
2017-11-23T22:21:58.804Z,7.81
2017-11-23T22:24:37.596Z,7.80
2017-11-23T22:27:19.135Z,7.79
2017-11-23T22:29:59.338Z,7.77
2017-11-23T22:32:44.115Z,7.76
2017-11-23T22:35:20.351Z,7.75
2017-11-23T22:37:48.857Z,7.73
2017-11-23T22:40:17.612Z,7.72
2017-11-23T22:42:59.994Z,7.71
2017-11-23T22:45:46.046Z,7.70
2017-11-23T22:48:32.536Z,7.70
2017-11-23T22:51:17.762Z,7.69
2017-11-23T22:54:09.717Z,7.67
2017-11-23T22:56:55.228Z,7.67
2017-11-23T22:59:40.975Z,7.65
2017-11-23T23:02:25.658Z,7.64
2017-11-23T23:05:08.295Z,7.63
2017-11-23T23:07:51.855Z,7.62
2017-11-23T23:10:37.031Z,7.61
2017-11-23T23:13:20.551Z,7.59
2017-11-23T23:16:07.543Z,7.57
2017-11-23T23:18:53.830Z,7.54
2017-11-23T23:21:40.263Z,7.54
2017-11-23T23:24:25.309Z,7.55
2017-11-23T23:27:13.829Z,7.53
2017-11-23T23:29:44.415Z,7.52
2017-11-23T23:32:13.152Z,7.50
2017-11-23T23:34:41.801Z,7.49
2017-11-23T23:37:10.505Z,7.48
2017-11-23T23:39:39.180Z,7.46
2017-11-23T23:42:07.884Z,7.46
2017-11-23T23:44:36.517Z,7.45
2017-11-23T23:47:05.167Z,7.44
2017-11-23T23:49:33.850Z,7.43
2017-11-23T23:52:02.480Z,7.42
2017-11-23T23:54:31.194Z,7.41
2017-11-23T23:56:59.865Z,7.40
2017-11-23T23:59:28.552Z,7.39
